Terminal Aerodrome Forecast
Issued by NWS

Home | Current Version | Previous Version | Text Only | Print | Product List | Glossary On
Versions: 1 2 3 4 5 6 7 8 9 10 11 12
000
FTAK31 PAFA 281126
TAFABT
TAF
PABT 281126Z 2812/2912 VRB06KT P6SM FEW035 SCT060 BKN080
     FM281800 21010KT P6SM VCSH SCT035 BKN050 OVC100
     FM282100 24010KT 6SM -SHRA BR SCT025 BKN035 OVC050=

USA.gov is the U.S. government's official web portal to all federal, state and local government web resources and services.